Aviation Digital Data Service (ADDS)

Output produced by METARs form (0040 UTC 21 July 2017)
found at http://aviationweather.gov/adds/metars/
 
KROA 202332Z 2100/2124 27004KT P6SM FEW250 
     FM211800 29007KT P6SM VCTS BKN050CB 
     FM212200 29004KT P6SM SCT090